sensor_id;sensor_type;location;lat;lon;timestamp;pressure;altitude;pressure_sealevel;temperature;humidity
79077;BME280;68477;42.698;23.342;2024-02-28T00:02:21;95726.69;;;8.96;76.70
79077;BME280;68477;42.698;23.342;2024-02-28T00:04:47;95729.31;;;8.96;76.43
79077;BME280;68477;42.698;23.342;2024-02-28T00:07:12;95725.16;;;8.93;76.78
79077;BME280;68477;42.698;23.342;2024-02-28T00:09:38;95727.44;;;8.88;77.26
79077;BME280;68477;42.698;23.342;2024-02-28T00:12:03;95729.97;;;8.80;77.15
79077;BME280;68477;42.698;23.342;2024-02-28T00:14:29;95728.31;;;8.79;77.13
79077;BME280;68477;42.698;23.342;2024-02-28T00:16:54;95726.91;;;8.12;80.15
79077;BME280;68477;42.698;23.342;2024-02-28T00:19:20;95737.16;;;8.05;80.62
79077;BME280;68477;42.698;23.342;2024-02-28T00:21:47;95733.44;;;7.98;80.87
79077;BME280;68477;42.698;23.342;2024-02-28T00:24:13;95740.81;;;7.85;82.29
79077;BME280;68477;42.698;23.342;2024-02-28T00:26:42;95731.03;;;8.14;80.32
79077;BME280;68477;42.698;23.342;2024-02-28T00:29:11;95733.78;;;8.13;80.79
79077;BME280;68477;42.698;23.342;2024-02-28T00:31:38;95735.31;;;7.78;81.72
79077;BME280;68477;42.698;23.342;2024-02-28T00:34:03;95735.59;;;8.12;79.73
79077;BME280;68477;42.698;23.342;2024-02-28T00:36:29;95724.28;;;8.12;79.55
79077;BME280;68477;42.698;23.342;2024-02-28T00:38:54;95726.00;;;8.31;79.84
79077;BME280;68477;42.698;23.342;2024-02-28T00:41:20;95726.13;;;8.02;79.92
79077;BME280;68477;42.698;23.342;2024-02-28T00:43:45;95722.34;;;8.14;79.52
79077;BME280;68477;42.698;23.342;2024-02-28T00:46:11;95725.69;;;8.06;80.19
79077;BME280;68477;42.698;23.342;2024-02-28T00:48:40;95731.34;;;8.02;80.41
79077;BME280;68477;42.698;23.342;2024-02-28T00:51:06;95722.00;;;7.99;80.61
79077;BME280;68477;42.698;23.342;2024-02-28T00:53:32;95728.66;;;7.94;81.01
79077;BME280;68477;42.698;23.342;2024-02-28T00:55:59;95733.63;;;7.87;80.93
79077;BME280;68477;42.698;23.342;2024-02-28T00:58:25;95728.34;;;7.97;80.77
79077;BME280;68477;42.698;23.342;2024-02-28T01:00:53;95725.34;;;7.92;80.61
79077;BME280;68477;42.698;23.342;2024-02-28T01:03:18;95736.59;;;8.02;80.24
79077;BME280;68477;42.698;23.342;2024-02-28T01:05:44;95744.22;;;7.95;81.01
79077;BME280;68477;42.698;23.342;2024-02-28T01:08:10;95747.03;;;7.74;81.54
79077;BME280;68477;42.698;23.342;2024-02-28T01:10:35;95743.78;;;7.53;83.59
79077;BME280;68477;42.698;23.342;2024-02-28T01:13:02;95738.03;;;7.40;83.42
79077;BME280;68477;42.698;23.342;2024-02-28T01:15:27;95736.47;;;7.56;82.73
79077;BME280;68477;42.698;23.342;2024-02-28T01:17:53;95738.25;;;7.56;82.51
79077;BME280;68477;42.698;23.342;2024-02-28T01:20:18;95740.19;;;7.54;82.34
79077;BME280;68477;42.698;23.342;2024-02-28T01:22:44;95744.31;;;7.66;82.39
79077;BME280;68477;42.698;23.342;2024-02-28T01:25:10;95748.34;;;7.51;82.93
79077;BME280;68477;42.698;23.342;2024-02-28T01:27:35;95749.34;;;7.40;83.27
79077;BME280;68477;42.698;23.342;2024-02-28T01:30:01;95742.94;;;7.62;82.55
79077;BME280;68477;42.698;23.342;2024-02-28T01:32:28;95745.06;;;7.39;83.29
79077;BME280;68477;42.698;23.342;2024-02-28T01:34:54;95754.47;;;7.03;85.83
79077;BME280;68477;42.698;23.342;2024-02-28T01:37:20;95758.53;;;7.44;83.46
79077;BME280;68477;42.698;23.342;2024-02-28T01:39:45;95757.84;;;7.42;83.63
79077;BME280;68477;42.698;23.342;2024-02-28T01:42:11;95758.16;;;7.39;83.71
79077;BME280;68477;42.698;23.342;2024-02-28T01:44:46;95761.88;;;7.27;84.50
79077;BME280;68477;42.698;23.342;2024-02-28T01:47:12;95758.41;;;7.46;83.62
79077;BME280;68477;42.698;23.342;2024-02-28T01:49:38;95764.19;;;7.59;83.40
79077;BME280;68477;42.698;23.342;2024-02-28T01:52:04;95765.28;;;7.47;83.18
79077;BME280;68477;42.698;23.342;2024-02-28T01:54:31;95761.44;;;7.41;83.88
79077;BME280;68477;42.698;23.342;2024-02-28T01:56:57;95765.72;;;7.23;84.71
79077;BME280;68477;42.698;23.342;2024-02-28T01:59:24;95768.19;;;6.76;86.12
79077;BME280;68477;42.698;23.342;2024-02-28T02:01:51;95766.03;;;6.81;86.73
79077;BME280;68477;42.698;23.342;2024-02-28T02:04:17;95770.03;;;7.05;85.31
79077;BME280;68477;42.698;23.342;2024-02-28T02:06:43;95763.41;;;7.20;84.39
79077;BME280;68477;42.698;23.342;2024-02-28T02:09:12;95772.59;;;7.24;84.27
79077;BME280;68477;42.698;23.342;2024-02-28T02:11:38;95763.13;;;6.94;85.28
79077;BME280;68477;42.698;23.342;2024-02-28T02:14:04;95758.44;;;7.17;84.16
79077;BME280;68477;42.698;23.342;2024-02-28T02:16:30;95756.81;;;7.06;84.24
79077;BME280;68477;42.698;23.342;2024-02-28T02:18:56;95753.28;;;6.38;88.25
79077;BME280;68477;42.698;23.342;2024-02-28T02:21:35;95758.81;;;6.04;90.00
79077;BME280;68477;42.698;23.342;2024-02-28T02:24:03;95757.28;;;6.42;88.78
79077;BME280;68477;42.698;23.342;2024-02-28T02:26:28;95758.97;;;6.62;86.65
79077;BME280;68477;42.698;23.342;2024-02-28T02:28:54;95755.94;;;6.57;87.81
79077;BME280;68477;42.698;23.342;2024-02-28T02:31:19;95757.47;;;6.10;89.42
79077;BME280;68477;42.698;23.342;2024-02-28T02:33:45;95755.75;;;6.39;89.28
79077;BME280;68477;42.698;23.342;2024-02-28T02:36:10;95747.66;;;6.42;88.30
79077;BME280;68477;42.698;23.342;2024-02-28T02:38:37;95753.59;;;6.54;88.00
79077;BME280;68477;42.698;23.342;2024-02-28T02:41:02;95756.06;;;6.46;88.69
79077;BME280;68477;42.698;23.342;2024-02-28T02:43:28;95755.25;;;6.46;89.17
79077;BME280;68477;42.698;23.342;2024-02-28T02:45:54;95765.44;;;6.78;87.20
79077;BME280;68477;42.698;23.342;2024-02-28T02:48:19;95769.72;;;6.88;86.22
79077;BME280;68477;42.698;23.342;2024-02-28T02:50:45;95760.78;;;7.00;86.08
79077;BME280;68477;42.698;23.342;2024-02-28T02:53:10;95769.03;;;6.86;86.29
79077;BME280;68477;42.698;23.342;2024-02-28T02:55:36;95767.22;;;6.77;87.29
79077;BME280;68477;42.698;23.342;2024-02-28T02:58:02;95761.25;;;6.36;88.65
79077;BME280;68477;42.698;23.342;2024-02-28T03:00:28;95767.66;;;6.13;91.30
79077;BME280;68477;42.698;23.342;2024-02-28T03:02:54;95757.97;;;6.34;89.62
79077;BME280;68477;42.698;23.342;2024-02-28T03:05:19;95762.69;;;6.60;87.23
79077;BME280;68477;42.698;23.342;2024-02-28T03:07:45;95760.56;;;6.44;88.53
79077;BME280;68477;42.698;23.342;2024-02-28T03:10:11;95759.44;;;6.27;88.82
79077;BME280;68477;42.698;23.342;2024-02-28T03:12:36;95758.38;;;6.39;87.93
79077;BME280;68477;42.698;23.342;2024-02-28T03:15:02;95761.53;;;6.43;88.36
79077;BME280;68477;42.698;23.342;2024-02-28T03:17:28;95760.31;;;6.37;88.15
79077;BME280;68477;42.698;23.342;2024-02-28T03:19:54;95761.53;;;6.43;88.65
79077;BME280;68477;42.698;23.342;2024-02-28T03:22:20;95764.47;;;6.59;87.25
79077;BME280;68477;42.698;23.342;2024-02-28T03:24:45;95767.28;;;6.27;88.42
79077;BME280;68477;42.698;23.342;2024-02-28T03:27:11;95757.59;;;6.58;88.26
79077;BME280;68477;42.698;23.342;2024-02-28T03:29:36;95763.59;;;6.39;88.20
79077;BME280;68477;42.698;23.342;2024-02-28T03:32:02;95769.41;;;6.53;88.42
79077;BME280;68477;42.698;23.342;2024-02-28T03:34:29;95771.19;;;6.52;88.02
79077;BME280;68477;42.698;23.342;2024-02-28T03:36:54;95769.69;;;6.50;88.64
79077;BME280;68477;42.698;23.342;2024-02-28T03:39:20;95775.56;;;6.42;88.65
79077;BME280;68477;42.698;23.342;2024-02-28T03:41:45;95775.28;;;6.35;88.31
79077;BME280;68477;42.698;23.342;2024-02-28T03:44:11;95790.03;;;6.46;88.99
79077;BME280;68477;42.698;23.342;2024-02-28T03:46:36;95779.41;;;6.38;89.92
79077;BME280;68477;42.698;23.342;2024-02-28T03:49:02;95784.75;;;6.27;89.15
79077;BME280;68477;42.698;23.342;2024-02-28T03:51:27;95782.78;;;6.19;89.41
79077;BME280;68477;42.698;23.342;2024-02-28T03:53:54;95776.09;;;6.26;89.33
79077;BME280;68477;42.698;23.342;2024-02-28T03:56:23;95778.19;;;6.42;89.62
79077;BME280;68477;42.698;23.342;2024-02-28T03:58:50;95778.59;;;6.37;89.80
79077;BME280;68477;42.698;23.342;2024-02-28T04:01:16;95785.53;;;6.58;88.21
79077;BME280;68477;42.698;23.342;2024-02-28T04:03:42;95782.84;;;6.38;88.69
79077;BME280;68477;42.698;23.342;2024-02-28T04:06:07;95777.22;;;6.43;88.34
79077;BME280;68477;42.698;23.342;2024-02-28T04:08:33;95774.75;;;6.41;89.54
79077;BME280;68477;42.698;23.342;2024-02-28T04:10:58;95777.78;;;6.47;88.48
79077;BME280;68477;42.698;23.342;2024-02-28T04:13:24;95777.88;;;6.26;89.02
79077;BME280;68477;42.698;23.342;2024-02-28T04:15:50;95773.53;;;6.05;91.73
79077;BME280;68477;42.698;23.342;2024-02-28T04:18:15;95777.88;;;5.95;92.55
79077;BME280;68477;42.698;23.342;2024-02-28T04:20:41;95774.22;;;6.07;90.84
79077;BME280;68477;42.698;23.342;2024-02-28T04:23:06;95769.28;;;5.83;92.72
79077;BME280;68477;42.698;23.342;2024-02-28T04:25:33;95772.03;;;5.82;92.68
79077;BME280;68477;42.698;23.342;2024-02-28T04:27:59;95771.16;;;5.93;92.21
79077;BME280;68477;42.698;23.342;2024-02-28T04:30:25;95773.41;;;6.07;91.86
79077;BME280;68477;42.698;23.342;2024-02-28T04:32:50;95773.84;;;6.12;90.45
79077;BME280;68477;42.698;23.342;2024-02-28T04:35:16;95770.28;;;6.23;90.85
79077;BME280;68477;42.698;23.342;2024-02-28T04:37:44;95771.97;;;6.33;90.64
79077;BME280;68477;42.698;23.342;2024-02-28T04:40:11;95780.41;;;6.06;92.19
79077;BME280;68477;42.698;23.342;2024-02-28T04:42:37;95779.06;;;6.12;91.60
79077;BME280;68477;42.698;23.342;2024-02-28T04:45:03;95778.78;;;6.15;92.52
79077;BME280;68477;42.698;23.342;2024-02-28T04:47:29;95783.25;;;6.43;90.54
79077;BME280;68477;42.698;23.342;2024-02-28T04:49:54;95781.16;;;6.28;91.73
79077;BME280;68477;42.698;23.342;2024-02-28T04:52:20;95784.06;;;5.94;94.19
79077;BME280;68477;42.698;23.342;2024-02-28T04:54:45;95785.34;;;6.09;93.89
79077;BME280;68477;42.698;23.342;2024-02-28T04:57:11;95779.31;;;5.88;95.08
79077;BME280;68477;42.698;23.342;2024-02-28T04:59:36;95787.22;;;5.98;93.94
79077;BME280;68477;42.698;23.342;2024-02-28T05:02:02;95785.91;;;5.82;95.72
79077;BME280;68477;42.698;23.342;2024-02-28T05:04:28;95788.41;;;6.15;93.44
79077;BME280;68477;42.698;23.342;2024-02-28T05:06:54;95792.84;;;6.33;92.73
79077;BME280;68477;42.698;23.342;2024-02-28T05:09:19;95791.66;;;6.37;91.28
79077;BME280;68477;42.698;23.342;2024-02-28T05:11:45;95796.22;;;6.55;90.82
79077;BME280;68477;42.698;23.342;2024-02-28T05:14:10;95802.28;;;6.55;90.46
79077;BME280;68477;42.698;23.342;2024-02-28T05:16:36;95802.81;;;6.49;91.62
79077;BME280;68477;42.698;23.342;2024-02-28T05:19:01;95809.81;;;6.39;92.07
79077;BME280;68477;42.698;23.342;2024-02-28T05:21:29;95814.00;;;6.61;91.27
79077;BME280;68477;42.698;23.342;2024-02-28T05:23:54;95817.28;;;6.63;90.43
79077;BME280;68477;42.698;23.342;2024-02-28T05:26:20;95822.53;;;6.63;91.05
79077;BME280;68477;42.698;23.342;2024-02-28T05:28:45;95828.91;;;6.80;89.94
79077;BME280;68477;42.698;23.342;2024-02-28T05:31:24;95821.72;;;6.72;89.74
79077;BME280;68477;42.698;23.342;2024-02-28T05:33:54;95827.47;;;6.66;90.11
79077;BME280;68477;42.698;23.342;2024-02-28T05:36:22;95824.19;;;6.33;91.02
79077;BME280;68477;42.698;23.342;2024-02-28T05:38:47;95830.53;;;6.31;92.47
79077;BME280;68477;42.698;23.342;2024-02-28T05:41:13;95839.22;;;6.41;92.48
79077;BME280;68477;42.698;23.342;2024-02-28T05:43:40;95835.47;;;6.34;92.58
79077;BME280;68477;42.698;23.342;2024-02-28T05:46:06;95845.34;;;6.61;91.78
79077;BME280;68477;42.698;23.342;2024-02-28T05:48:31;95842.59;;;6.62;91.89
79077;BME280;68477;42.698;23.342;2024-02-28T05:50:57;95847.28;;;6.28;94.37
79077;BME280;68477;42.698;23.342;2024-02-28T05:53:22;95850.91;;;6.37;93.46
79077;BME280;68477;42.698;23.342;2024-02-28T05:55:52;95852.66;;;6.27;94.86
79077;BME280;68477;42.698;23.342;2024-02-28T05:58:19;95854.22;;;6.39;93.84
79077;BME280;68477;42.698;23.342;2024-02-28T06:00:46;95860.47;;;6.57;93.21
79077;BME280;68477;42.698;23.342;2024-02-28T06:03:12;95857.53;;;6.81;92.56
79077;BME280;68477;42.698;23.342;2024-02-28T06:05:38;95857.34;;;6.73;91.89
79077;BME280;68477;42.698;23.342;2024-02-28T06:08:04;95859.72;;;6.86;91.53
79077;BME280;68477;42.698;23.342;2024-02-28T06:10:30;95862.34;;;6.86;91.28
79077;BME280;68477;42.698;23.342;2024-02-28T06:12:55;95860.88;;;7.03;91.61
79077;BME280;68477;42.698;23.342;2024-02-28T06:15:21;95872.28;;;7.88;87.45
79077;BME280;68477;42.698;23.342;2024-02-28T06:17:46;95863.28;;;8.10;86.96
79077;BME280;68477;42.698;23.342;2024-02-28T06:20:12;95863.78;;;8.24;85.34
79077;BME280;68477;42.698;23.342;2024-02-28T06:22:37;95872.84;;;7.34;89.64
79077;BME280;68477;42.698;23.342;2024-02-28T06:25:03;95881.13;;;7.68;88.63
79077;BME280;68477;42.698;23.342;2024-02-28T06:27:33;95874.44;;;8.59;83.69
79077;BME280;68477;42.698;23.342;2024-02-28T06:29:59;95882.22;;;7.75;86.54
79077;BME280;68477;42.698;23.342;2024-02-28T06:32:24;95879.69;;;8.12;85.17
79077;BME280;68477;42.698;23.342;2024-02-28T06:34:50;95879.94;;;8.29;84.48
79077;BME280;68477;42.698;23.342;2024-02-28T06:37:16;95878.53;;;8.34;83.75
79077;BME280;68477;42.698;23.342;2024-02-28T06:39:41;95883.00;;;8.61;82.17
79077;BME280;68477;42.698;23.342;2024-02-28T06:42:07;95879.75;;;8.77;82.06
79077;BME280;68477;42.698;23.342;2024-02-28T06:44:33;95879.38;;;9.17;78.90
79077;BME280;68477;42.698;23.342;2024-02-28T06:46:58;95874.47;;;9.32;78.65
79077;BME280;68477;42.698;23.342;2024-02-28T06:49:24;95877.41;;;9.65;78.12
79077;BME280;68477;42.698;23.342;2024-02-28T06:51:49;95882.88;;;9.53;79.47
79077;BME280;68477;42.698;23.342;2024-02-28T06:54:15;95883.94;;;9.15;79.52
79077;BME280;68477;42.698;23.342;2024-02-28T06:56:40;95883.63;;;9.46;79.58
79077;BME280;68477;42.698;23.342;2024-02-28T06:59:06;95885.28;;;9.65;78.76
79077;BME280;68477;42.698;23.342;2024-02-28T07:01:32;95883.16;;;9.86;78.29
79077;BME280;68477;42.698;23.342;2024-02-28T07:03:58;95879.66;;;10.03;77.53
79077;BME280;68477;42.698;23.342;2024-02-28T07:06:23;95872.44;;;10.05;76.78
79077;BME280;68477;42.698;23.342;2024-02-28T07:08:49;95877.53;;;10.07;78.01
79077;BME280;68477;42.698;23.342;2024-02-28T07:11:15;95882.41;;;10.19;76.08
79077;BME280;68477;42.698;23.342;2024-02-28T07:13:41;95878.84;;;10.03;77.38
79077;BME280;68477;42.698;23.342;2024-02-28T07:16:07;95880.34;;;10.23;77.35
79077;BME280;68477;42.698;23.342;2024-02-28T07:18:33;95882.25;;;10.21;75.76
79077;BME280;68477;42.698;23.342;2024-02-28T07:20:58;95879.59;;;10.65;74.88
79077;BME280;68477;42.698;23.342;2024-02-28T07:23:24;95879.69;;;10.29;76.16
79077;BME280;68477;42.698;23.342;2024-02-28T07:25:50;95879.00;;;10.53;76.01
79077;BME280;68477;42.698;23.342;2024-02-28T07:28:16;95878.16;;;10.44;75.68
79077;BME280;68477;42.698;23.342;2024-02-28T07:30:41;95885.06;;;10.45;74.54
79077;BME280;68477;42.698;23.342;2024-02-28T07:33:09;95884.50;;;10.34;74.66
79077;BME280;68477;42.698;23.342;2024-02-28T07:35:44;95883.50;;;10.09;76.02
79077;BME280;68477;42.698;23.342;2024-02-28T07:38:10;95876.31;;;10.37;74.73
79077;BME280;68477;42.698;23.342;2024-02-28T07:40:35;95885.41;;;10.85;73.02
79077;BME280;68477;42.698;23.342;2024-02-28T07:43:01;95891.72;;;10.92;72.06
79077;BME280;68477;42.698;23.342;2024-02-28T07:45:26;95886.03;;;11.79;69.16
79077;BME280;68477;42.698;23.342;2024-02-28T07:47:52;95882.25;;;12.78;66.62
79077;BME280;68477;42.698;23.342;2024-02-28T07:50:18;95876.41;;;12.43;66.26
79077;BME280;68477;42.698;23.342;2024-02-28T07:52:44;95886.66;;;12.30;66.41
79077;BME280;68477;42.698;23.342;2024-02-28T07:55:10;95883.34;;;12.20;66.43
79077;BME280;68477;42.698;23.342;2024-02-28T07:57:36;95874.16;;;12.79;64.67
79077;BME280;68477;42.698;23.342;2024-02-28T08:00:01;95876.72;;;13.89;60.08
79077;BME280;68477;42.698;23.342;2024-02-28T08:02:27;95882.22;;;13.56;61.56
79077;BME280;68477;42.698;23.342;2024-02-28T08:04:53;95876.75;;;13.58;60.83
79077;BME280;68477;42.698;23.342;2024-02-28T08:07:18;95885.66;;;13.65;60.62
79077;BME280;68477;42.698;23.342;2024-02-28T08:09:44;95889.41;;;13.93;59.79
79077;BME280;68477;42.698;23.342;2024-02-28T08:12:09;95881.88;;;14.43;58.02
79077;BME280;68477;42.698;23.342;2024-02-28T08:14:36;95874.94;;;14.42;58.17
79077;BME280;68477;42.698;23.342;2024-02-28T08:17:02;95866.69;;;13.84;59.96
79077;BME280;68477;42.698;23.342;2024-02-28T08:19:27;95881.16;;;13.43;60.51
79077;BME280;68477;42.698;23.342;2024-02-28T08:21:53;95872.13;;;14.58;57.26
79077;BME280;68477;42.698;23.342;2024-02-28T08:24:19;95870.97;;;13.62;60.61
79077;BME280;68477;42.698;23.342;2024-02-28T08:26:45;95870.44;;;14.27;58.54
79077;BME280;68477;42.698;23.342;2024-02-28T08:29:10;95876.34;;;14.97;56.73
79077;BME280;68477;42.698;23.342;2024-02-28T08:31:54;95864.16;;;14.28;57.54
79077;BME280;68477;42.698;23.342;2024-02-28T08:34:19;95868.41;;;14.52;56.91
79077;BME280;68477;42.698;23.342;2024-02-28T08:36:45;95871.66;;;14.40;58.17
79077;BME280;68477;42.698;23.342;2024-02-28T08:39:10;95869.84;;;13.57;60.45
79077;BME280;68477;42.698;23.342;2024-02-28T08:41:36;95861.25;;;13.55;59.82
79077;BME280;68477;42.698;23.342;2024-02-28T08:44:02;95860.66;;;13.90;59.15
79077;BME280;68477;42.698;23.342;2024-02-28T08:46:27;95857.09;;;14.21;57.76
79077;BME280;68477;42.698;23.342;2024-02-28T08:48:53;95859.06;;;14.04;59.08
79077;BME280;68477;42.698;23.342;2024-02-28T08:51:18;95854.69;;;14.49;56.63
79077;BME280;68477;42.698;23.342;2024-02-28T08:53:44;95850.59;;;14.09;59.06
79077;BME280;68477;42.698;23.342;2024-02-28T08:56:10;95851.63;;;15.62;54.63
79077;BME280;68477;42.698;23.342;2024-02-28T08:58:35;95848.56;;;14.48;57.06
79077;BME280;68477;42.698;23.342;2024-02-28T09:01:03;95843.06;;;14.35;57.80
79077;BME280;68477;42.698;23.342;2024-02-28T09:03:29;95855.63;;;14.85;56.29
79077;BME280;68477;42.698;23.342;2024-02-28T09:05:56;95851.84;;;15.09;55.04
79077;BME280;68477;42.698;23.342;2024-02-28T09:08:21;95842.84;;;14.89;56.94
79077;BME280;68477;42.698;23.342;2024-02-28T09:10:47;95854.88;;;14.92;56.27
79077;BME280;68477;42.698;23.342;2024-02-28T09:13:12;95855.22;;;15.03;56.27
79077;BME280;68477;42.698;23.342;2024-02-28T09:15:38;95849.25;;;15.31;54.79
79077;BME280;68477;42.698;23.342;2024-02-28T09:18:04;95856.53;;;15.80;54.52
79077;BME280;68477;42.698;23.342;2024-02-28T09:20:30;95859.88;;;15.16;55.49
79077;BME280;68477;42.698;23.342;2024-02-28T09:22:55;95856.13;;;15.61;54.50
79077;BME280;68477;42.698;23.342;2024-02-28T09:25:21;95857.03;;;15.32;53.74
79077;BME280;68477;42.698;23.342;2024-02-28T09:27:47;95851.94;;;15.01;54.42
79077;BME280;68477;42.698;23.342;2024-02-28T09:30:13;95838.09;;;15.57;53.19
79077;BME280;68477;42.698;23.342;2024-02-28T09:32:38;95833.91;;;15.62;53.66
79077;BME280;68477;42.698;23.342;2024-02-28T09:35:04;95836.00;;;15.67;54.54
79077;BME280;68477;42.698;23.342;2024-02-28T09:37:30;95835.47;;;16.21;50.94
79077;BME280;68477;42.698;23.342;2024-02-28T09:39:57;95833.75;;;16.13;51.80
79077;BME280;68477;42.698;23.342;2024-02-28T09:42:23;95833.56;;;16.71;51.96
79077;BME280;68477;42.698;23.342;2024-02-28T09:44:48;95824.94;;;17.78;47.75
79077;BME280;68477;42.698;23.342;2024-02-28T09:47:16;95822.31;;;17.97;46.38
79077;BME280;68477;42.698;23.342;2024-02-28T09:49:42;95818.19;;;18.54;44.75
79077;BME280;68477;42.698;23.342;2024-02-28T09:52:08;95827.13;;;17.54;46.30
79077;BME280;68477;42.698;23.342;2024-02-28T09:54:34;95821.91;;;18.00;45.05
79077;BME280;68477;42.698;23.342;2024-02-28T09:57:00;95814.13;;;17.99;45.94
79077;BME280;68477;42.698;23.342;2024-02-28T09:59:26;95810.19;;;17.62;47.12
79077;BME280;68477;42.698;23.342;2024-02-28T10:01:56;95815.19;;;16.76;49.30
79077;BME280;68477;42.698;23.342;2024-02-28T10:04:24;95808.41;;;18.02;46.97
79077;BME280;68477;42.698;23.342;2024-02-28T10:06:51;95800.00;;;17.85;45.64
79077;BME280;68477;42.698;23.342;2024-02-28T10:09:16;95810.28;;;16.45;48.65
79077;BME280;68477;42.698;23.342;2024-02-28T10:11:42;95817.16;;;15.62;50.22
79077;BME280;68477;42.698;23.342;2024-02-28T10:14:11;95805.09;;;16.02;48.55
79077;BME280;68477;42.698;23.342;2024-02-28T10:16:37;95807.94;;;15.58;51.40
79077;BME280;68477;42.698;23.342;2024-02-28T10:19:05;95807.06;;;15.72;51.02
79077;BME280;68477;42.698;23.342;2024-02-28T10:21:30;95802.31;;;16.10;49.53
79077;BME280;68477;42.698;23.342;2024-02-28T10:24:00;95798.25;;;16.14;48.42
79077;BME280;68477;42.698;23.342;2024-02-28T10:26:26;95794.25;;;15.76;49.25
79077;BME280;68477;42.698;23.342;2024-02-28T10:28:51;95786.44;;;15.95;47.75
79077;BME280;68477;42.698;23.342;2024-02-28T10:31:17;95789.97;;;15.75;49.52
79077;BME280;68477;42.698;23.342;2024-02-28T10:33:43;95782.22;;;15.58;49.28
79077;BME280;68477;42.698;23.342;2024-02-28T10:36:09;95785.13;;;15.85;48.84
79077;BME280;68477;42.698;23.342;2024-02-28T10:38:34;95777.16;;;16.06;47.21
79077;BME280;68477;42.698;23.342;2024-02-28T10:41:01;95773.09;;;17.34;45.09
79077;BME280;68477;42.698;23.342;2024-02-28T10:43:30;95773.75;;;16.47;47.45
79077;BME280;68477;42.698;23.342;2024-02-28T10:45:57;95761.75;;;16.57;47.59
79077;BME280;68477;42.698;23.342;2024-02-28T10:48:27;95757.84;;;18.02;42.94
79077;BME280;68477;42.698;23.342;2024-02-28T10:50:53;95764.38;;;17.86;43.70
79077;BME280;68477;42.698;23.342;2024-02-28T10:53:26;95759.34;;;18.62;41.97
79077;BME280;68477;42.698;23.342;2024-02-28T10:56:02;95758.09;;;18.78;41.37
79077;BME280;68477;42.698;23.342;2024-02-28T10:58:35;95755.03;;;18.75;42.48
79077;BME280;68477;42.698;23.342;2024-02-28T11:01:05;95751.81;;;18.46;41.42
79077;BME280;68477;42.698;23.342;2024-02-28T11:03:31;95750.56;;;19.13;39.54
79077;BME280;68477;42.698;23.342;2024-02-28T11:05:57;95750.31;;;19.22;39.20
79077;BME280;68477;42.698;23.342;2024-02-28T11:10:59;95740.50;;;18.71;41.45
79077;BME280;68477;42.698;23.342;2024-02-28T11:13:28;95736.75;;;17.81;44.44
79077;BME280;68477;42.698;23.342;2024-02-28T11:15:54;95735.47;;;18.29;41.76
79077;BME280;68477;42.698;23.342;2024-02-28T11:18:22;95725.97;;;18.53;41.68
79077;BME280;68477;42.698;23.342;2024-02-28T11:20:48;95731.13;;;19.00;40.66
79077;BME280;68477;42.698;23.342;2024-02-28T11:23:14;95724.69;;;18.76;41.48
79077;BME280;68477;42.698;23.342;2024-02-28T11:25:42;95717.75;;;19.44;40.57
79077;BME280;68477;42.698;23.342;2024-02-28T11:28:08;95719.03;;;20.17;38.57
79077;BME280;68477;42.698;23.342;2024-02-28T11:30:34;95705.78;;;19.54;39.84
79077;BME280;68477;42.698;23.342;2024-02-28T11:32:59;95719.88;;;19.67;37.79
79077;BME280;68477;42.698;23.342;2024-02-28T11:35:26;95709.28;;;20.66;36.20
79077;BME280;68477;42.698;23.342;2024-02-28T11:37:54;95701.13;;;21.92;34.32
79077;BME280;68477;42.698;23.342;2024-02-28T11:40:25;95705.53;;;21.75;34.16
79077;BME280;68477;42.698;23.342;2024-02-28T11:42:52;95698.78;;;21.96;34.17
79077;BME280;68477;42.698;23.342;2024-02-28T11:45:18;95694.19;;;21.61;34.42
79077;BME280;68477;42.698;23.342;2024-02-28T11:47:44;95697.75;;;22.44;33.05
79077;BME280;68477;42.698;23.342;2024-02-28T11:50:10;95699.16;;;22.46;33.81
79077;BME280;68477;42.698;23.342;2024-02-28T11:52:36;95695.72;;;22.62;33.46
79077;BME280;68477;42.698;23.342;2024-02-28T11:55:02;95686.91;;;23.02;31.94
79077;BME280;68477;42.698;23.342;2024-02-28T11:57:28;95691.06;;;23.10;32.16
79077;BME280;68477;42.698;23.342;2024-02-28T11:59:56;95692.00;;;23.32;31.39
79077;BME280;68477;42.698;23.342;2024-02-28T12:02:23;95689.97;;;23.22;32.36
79077;BME280;68477;42.698;23.342;2024-02-28T12:04:52;95684.00;;;21.93;33.26
79077;BME280;68477;42.698;23.342;2024-02-28T12:07:19;95684.38;;;24.03;29.45
79077;BME280;68477;42.698;23.342;2024-02-28T12:09:46;95691.19;;;23.60;31.07
79077;BME280;68477;42.698;23.342;2024-02-28T12:12:13;95679.50;;;22.81;31.08
79077;BME280;68477;42.698;23.342;2024-02-28T12:14:39;95677.31;;;22.66;31.43
79077;BME280;68477;42.698;23.342;2024-02-28T12:17:05;95672.63;;;22.73;32.09
79077;BME280;68477;42.698;23.342;2024-02-28T12:19:34;95676.44;;;22.37;33.04
79077;BME280;68477;42.698;23.342;2024-02-28T12:22:00;95663.94;;;21.61;34.34
79077;BME280;68477;42.698;23.342;2024-02-28T12:24:26;95667.94;;;21.28;34.06
79077;BME280;68477;42.698;23.342;2024-02-28T12:26:52;95666.06;;;22.29;32.39
79077;BME280;68477;42.698;23.342;2024-02-28T12:29:17;95660.03;;;23.14;31.61
79077;BME280;68477;42.698;23.342;2024-02-28T12:31:43;95653.44;;;22.53;32.11
79077;BME280;68477;42.698;23.342;2024-02-28T12:34:09;95653.34;;;23.00;32.34
79077;BME280;68477;42.698;23.342;2024-02-28T12:36:34;95662.84;;;22.67;31.79
79077;BME280;68477;42.698;23.342;2024-02-28T12:39:00;95655.22;;;22.76;32.48
79077;BME280;68477;42.698;23.342;2024-02-28T12:41:28;95645.69;;;21.69;34.66
79077;BME280;68477;42.698;23.342;2024-02-28T12:43:54;95662.78;;;20.12;37.72
79077;BME280;68477;42.698;23.342;2024-02-28T12:46:20;95648.03;;;19.09;39.46
79077;BME280;68477;42.698;23.342;2024-02-28T12:48:45;95654.50;;;19.52;39.51
79077;BME280;68477;42.698;23.342;2024-02-28T12:51:38;95644.22;;;19.55;39.11
79077;BME280;68477;42.698;23.342;2024-02-28T12:54:04;95645.94;;;19.43;40.79